sensor_id;sensor_type;location;lat;lon;timestamp;pressure;altitude;pressure_sealevel;temperature;humidity
37202;BME280;37799;52.390;6.136;2023-09-07T00:02:16;102019.38;;;18.58;100.00
37202;BME280;37799;52.390;6.136;2023-09-07T00:04:41;102010.00;;;18.52;100.00
37202;BME280;37799;52.390;6.136;2023-09-07T00:07:08;102015.75;;;18.40;100.00
37202;BME280;37799;52.390;6.136;2023-09-07T00:09:33;102012.50;;;18.34;100.00
37202;BME280;37799;52.390;6.136;2023-09-07T00:11:58;102013.63;;;18.28;100.00
37202;BME280;37799;52.390;6.136;2023-09-07T00:14:24;102007.75;;;18.21;100.00
37202;BME280;37799;52.390;6.136;2023-09-07T00:16:49;102003.34;;;18.22;100.00
37202;BME280;37799;52.390;6.136;2023-09-07T00:19:14;102000.91;;;18.17;100.00
37202;BME280;37799;52.390;6.136;2023-09-07T00:21:40;102007.22;;;18.13;100.00
37202;BME280;37799;52.390;6.136;2023-09-07T00:24:05;102008.28;;;18.08;100.00
37202;BME280;37799;52.390;6.136;2023-09-07T00:26:31;102012.72;;;18.06;100.00
37202;BME280;37799;52.390;6.136;2023-09-07T00:28:57;102010.41;;;17.98;100.00
37202;BME280;37799;52.390;6.136;2023-09-07T00:31:22;102009.66;;;17.94;100.00
37202;BME280;37799;52.390;6.136;2023-09-07T00:33:47;102012.34;;;17.93;100.00
37202;BME280;37799;52.390;6.136;2023-09-07T00:36:13;102009.72;;;17.93;100.00
37202;BME280;37799;52.390;6.136;2023-09-07T00:38:38;102016.91;;;17.88;100.00
37202;BME280;37799;52.390;6.136;2023-09-07T00:41:03;102014.41;;;17.85;100.00
37202;BME280;37799;52.390;6.136;2023-09-07T00:43:29;102007.63;;;17.79;100.00
37202;BME280;37799;52.390;6.136;2023-09-07T00:45:55;102007.13;;;17.68;100.00
37202;BME280;37799;52.390;6.136;2023-09-07T00:48:21;102007.25;;;17.65;100.00
37202;BME280;37799;52.390;6.136;2023-09-07T00:50:47;102003.91;;;17.61;100.00
37202;BME280;37799;52.390;6.136;2023-09-07T00:53:13;102007.53;;;17.57;100.00
37202;BME280;37799;52.390;6.136;2023-09-07T00:55:39;102006.06;;;17.50;100.00
37202;BME280;37799;52.390;6.136;2023-09-07T00:58:04;101995.78;;;17.44;100.00
37202;BME280;37799;52.390;6.136;2023-09-07T01:00:30;102002.09;;;17.38;100.00
37202;BME280;37799;52.390;6.136;2023-09-07T01:02:57;102006.59;;;17.35;100.00
37202;BME280;37799;52.390;6.136;2023-09-07T01:05:30;101999.53;;;17.37;100.00
37202;BME280;37799;52.390;6.136;2023-09-07T01:08:04;101999.66;;;17.34;100.00
37202;BME280;37799;52.390;6.136;2023-09-07T01:10:31;101988.47;;;17.29;100.00
37202;BME280;37799;52.390;6.136;2023-09-07T01:12:56;101994.00;;;17.21;100.00
37202;BME280;37799;52.390;6.136;2023-09-07T01:15:21;101991.53;;;17.17;100.00
37202;BME280;37799;52.390;6.136;2023-09-07T01:17:47;101996.69;;;17.20;100.00
37202;BME280;37799;52.390;6.136;2023-09-07T01:20:13;102002.72;;;17.22;100.00
37202;BME280;37799;52.390;6.136;2023-09-07T01:22:42;101994.81;;;17.23;100.00
37202;BME280;37799;52.390;6.136;2023-09-07T01:25:08;101993.16;;;17.21;100.00
37202;BME280;37799;52.390;6.136;2023-09-07T01:27:34;101983.78;;;17.14;100.00
37202;BME280;37799;52.390;6.136;2023-09-07T01:29:59;101990.72;;;17.15;100.00
37202;BME280;37799;52.390;6.136;2023-09-07T01:32:24;101984.59;;;17.16;100.00
37202;BME280;37799;52.390;6.136;2023-09-07T01:34:55;101976.34;;;17.26;100.00
37202;BME280;37799;52.390;6.136;2023-09-07T01:37:22;101981.00;;;17.18;100.00
37202;BME280;37799;52.390;6.136;2023-09-07T01:39:47;101983.63;;;17.18;100.00
37202;BME280;37799;52.390;6.136;2023-09-07T01:42:14;101982.69;;;17.21;100.00
37202;BME280;37799;52.390;6.136;2023-09-07T01:44:39;101992.59;;;17.36;100.00
37202;BME280;37799;52.390;6.136;2023-09-07T01:47:04;101985.72;;;17.33;100.00
37202;BME280;37799;52.390;6.136;2023-09-07T01:49:30;101978.91;;;17.28;100.00
37202;BME280;37799;52.390;6.136;2023-09-07T01:51:55;101985.13;;;17.25;100.00
37202;BME280;37799;52.390;6.136;2023-09-07T01:54:21;101984.34;;;17.23;100.00
37202;BME280;37799;52.390;6.136;2023-09-07T01:56:47;101982.75;;;17.19;100.00
37202;BME280;37799;52.390;6.136;2023-09-07T01:59:12;101981.06;;;17.17;100.00
37202;BME280;37799;52.390;6.136;2023-09-07T02:01:37;101988.78;;;17.21;100.00
37202;BME280;37799;52.390;6.136;2023-09-07T02:04:04;101982.50;;;17.25;100.00
37202;BME280;37799;52.390;6.136;2023-09-07T02:06:29;101984.28;;;17.25;100.00
37202;BME280;37799;52.390;6.136;2023-09-07T02:08:55;101984.28;;;17.25;100.00
37202;BME280;37799;52.390;6.136;2023-09-07T02:11:20;101986.22;;;17.20;100.00
37202;BME280;37799;52.390;6.136;2023-09-07T02:13:47;101990.69;;;17.16;100.00
37202;BME280;37799;52.390;6.136;2023-09-07T02:16:13;101984.81;;;17.09;100.00
37202;BME280;37799;52.390;6.136;2023-09-07T02:18:38;101987.69;;;17.02;100.00
37202;BME280;37799;52.390;6.136;2023-09-07T02:21:09;101986.34;;;16.90;100.00
37202;BME280;37799;52.390;6.136;2023-09-07T02:23:35;101986.66;;;16.81;100.00
37202;BME280;37799;52.390;6.136;2023-09-07T02:26:02;101984.47;;;16.69;100.00
37202;BME280;37799;52.390;6.136;2023-09-07T02:28:28;101977.94;;;16.54;100.00
37202;BME280;37799;52.390;6.136;2023-09-07T02:30:53;101985.34;;;16.41;100.00
37202;BME280;37799;52.390;6.136;2023-09-07T02:33:19;101982.19;;;16.30;100.00
37202;BME280;37799;52.390;6.136;2023-09-07T02:35:44;101974.41;;;16.29;100.00
37202;BME280;37799;52.390;6.136;2023-09-07T02:38:10;101980.50;;;16.29;100.00
37202;BME280;37799;52.390;6.136;2023-09-07T02:40:44;101980.66;;;16.23;100.00
37202;BME280;37799;52.390;6.136;2023-09-07T02:43:11;101971.00;;;16.25;100.00
37202;BME280;37799;52.390;6.136;2023-09-07T02:45:36;101979.91;;;16.19;100.00
37202;BME280;37799;52.390;6.136;2023-09-07T02:48:02;101977.47;;;16.15;100.00
37202;BME280;37799;52.390;6.136;2023-09-07T02:50:33;101980.94;;;16.14;100.00
37202;BME280;37799;52.390;6.136;2023-09-07T02:52:59;101986.38;;;16.08;100.00
37202;BME280;37799;52.390;6.136;2023-09-07T02:55:26;101977.91;;;16.00;100.00
37202;BME280;37799;52.390;6.136;2023-09-07T02:57:51;101975.53;;;15.92;100.00
37202;BME280;37799;52.390;6.136;2023-09-07T03:00:16;101979.16;;;15.86;100.00
37202;BME280;37799;52.390;6.136;2023-09-07T03:02:43;101975.91;;;15.80;100.00
37202;BME280;37799;52.390;6.136;2023-09-07T03:05:09;101975.03;;;15.79;100.00
37202;BME280;37799;52.390;6.136;2023-09-07T03:07:34;101982.03;;;15.79;100.00
37202;BME280;37799;52.390;6.136;2023-09-07T03:09:59;101978.63;;;15.75;100.00
37202;BME280;37799;52.390;6.136;2023-09-07T03:12:27;101977.78;;;15.75;100.00
37202;BME280;37799;52.390;6.136;2023-09-07T03:14:52;101984.69;;;15.77;100.00
37202;BME280;37799;52.390;6.136;2023-09-07T03:17:18;101979.38;;;15.80;100.00
37202;BME280;37799;52.390;6.136;2023-09-07T03:19:45;101981.22;;;15.77;100.00
37202;BME280;37799;52.390;6.136;2023-09-07T03:22:11;101987.34;;;15.76;100.00
37202;BME280;37799;52.390;6.136;2023-09-07T03:24:36;101980.63;;;15.67;100.00
37202;BME280;37799;52.390;6.136;2023-09-07T03:27:01;101981.56;;;15.65;100.00
37202;BME280;37799;52.390;6.136;2023-09-07T03:29:29;101984.22;;;15.63;100.00
37202;BME280;37799;52.390;6.136;2023-09-07T03:31:55;101976.56;;;15.55;100.00
37202;BME280;37799;52.390;6.136;2023-09-07T03:34:20;101981.88;;;15.52;100.00
37202;BME280;37799;52.390;6.136;2023-09-07T03:36:46;101981.28;;;15.43;100.00
37202;BME280;37799;52.390;6.136;2023-09-07T03:39:11;101977.88;;;15.41;100.00
37202;BME280;37799;52.390;6.136;2023-09-07T03:41:36;101978.88;;;15.35;100.00
37202;BME280;37799;52.390;6.136;2023-09-07T03:44:02;101981.63;;;15.30;100.00
37202;BME280;37799;52.390;6.136;2023-09-07T03:46:27;101977.44;;;15.25;100.00
37202;BME280;37799;52.390;6.136;2023-09-07T03:48:53;101978.34;;;15.24;100.00
37202;BME280;37799;52.390;6.136;2023-09-07T03:51:18;101972.22;;;15.23;100.00
37202;BME280;37799;52.390;6.136;2023-09-07T03:53:43;101974.69;;;15.29;100.00
37202;BME280;37799;52.390;6.136;2023-09-07T03:56:09;101974.59;;;15.32;100.00
37202;BME280;37799;52.390;6.136;2023-09-07T03:58:34;101971.78;;;15.40;100.00
37202;BME280;37799;52.390;6.136;2023-09-07T04:00:59;101970.84;;;15.43;100.00
37202;BME280;37799;52.390;6.136;2023-09-07T04:03:25;101968.03;;;15.49;100.00
37202;BME280;37799;52.390;6.136;2023-09-07T04:05:51;101978.38;;;15.53;100.00
37202;BME280;37799;52.390;6.136;2023-09-07T04:08:16;101973.84;;;15.60;100.00
37202;BME280;37799;52.390;6.136;2023-09-07T04:10:41;101979.09;;;15.58;100.00
37202;BME280;37799;52.390;6.136;2023-09-07T04:13:07;101979.88;;;15.62;100.00
37202;BME280;37799;52.390;6.136;2023-09-07T04:15:42;101983.03;;;15.73;100.00
37202;BME280;37799;52.390;6.136;2023-09-07T04:18:09;101983.84;;;15.75;100.00
37202;BME280;37799;52.390;6.136;2023-09-07T04:20:34;101985.28;;;15.85;100.00
37202;BME280;37799;52.390;6.136;2023-09-07T04:23:00;101990.72;;;15.79;100.00
37202;BME280;37799;52.390;6.136;2023-09-07T04:25:25;101987.38;;;15.74;100.00
37202;BME280;37799;52.390;6.136;2023-09-07T04:27:51;101990.97;;;15.70;100.00
37202;BME280;37799;52.390;6.136;2023-09-07T04:30:16;101985.75;;;15.70;100.00
37202;BME280;37799;52.390;6.136;2023-09-07T04:32:42;101987.59;;;15.67;100.00
37202;BME280;37799;52.390;6.136;2023-09-07T04:35:07;101985.84;;;15.67;100.00
37202;BME280;37799;52.390;6.136;2023-09-07T04:37:33;101988.59;;;15.62;100.00
37202;BME280;37799;52.390;6.136;2023-09-07T04:39:58;101980.00;;;15.57;100.00
37202;BME280;37799;52.390;6.136;2023-09-07T04:42:23;101986.84;;;15.61;100.00
37202;BME280;37799;52.390;6.136;2023-09-07T04:44:49;101981.09;;;15.49;100.00
37202;BME280;37799;52.390;6.136;2023-09-07T04:47:14;101981.03;;;15.52;100.00
37202;BME280;37799;52.390;6.136;2023-09-07T04:49:41;101979.28;;;15.52;100.00
37202;BME280;37799;52.390;6.136;2023-09-07T04:52:06;101976.81;;;15.46;100.00
37202;BME280;37799;52.390;6.136;2023-09-07T04:54:32;101981.16;;;15.47;100.00
37202;BME280;37799;52.390;6.136;2023-09-07T04:56:57;101982.84;;;15.48;100.00
37202;BME280;37799;52.390;6.136;2023-09-07T04:59:22;101986.41;;;15.46;100.00
37202;BME280;37799;52.390;6.136;2023-09-07T05:01:48;101993.09;;;15.56;100.00
37202;BME280;37799;52.390;6.136;2023-09-07T05:04:13;101994.91;;;15.54;100.00
37202;BME280;37799;52.390;6.136;2023-09-07T05:06:39;101998.34;;;15.54;100.00
37202;BME280;37799;52.390;6.136;2023-09-07T05:09:07;102001.00;;;15.53;100.00
37202;BME280;37799;52.390;6.136;2023-09-07T05:11:32;102003.44;;;15.59;100.00
37202;BME280;37799;52.390;6.136;2023-09-07T05:14:00;102005.13;;;15.63;100.00
37202;BME280;37799;52.390;6.136;2023-09-07T05:16:26;102006.03;;;15.60;100.00
37202;BME280;37799;52.390;6.136;2023-09-07T05:18:51;102001.00;;;15.53;100.00
37202;BME280;37799;52.390;6.136;2023-09-07T05:21:17;102000.31;;;15.46;100.00
37202;BME280;37799;52.390;6.136;2023-09-07T05:23:42;102003.78;;;15.47;100.00
37202;BME280;37799;52.390;6.136;2023-09-07T05:26:08;102010.91;;;15.42;100.00
37202;BME280;37799;52.390;6.136;2023-09-07T05:28:33;102012.59;;;15.43;100.00
37202;BME280;37799;52.390;6.136;2023-09-07T05:30:58;102014.31;;;15.44;100.00
37202;BME280;37799;52.390;6.136;2023-09-07T05:33:24;102013.47;;;15.43;100.00
37202;BME280;37799;52.390;6.136;2023-09-07T05:35:49;102010.09;;;15.40;100.00
37202;BME280;37799;52.390;6.136;2023-09-07T05:38:14;102019.38;;;15.50;100.00
37202;BME280;37799;52.390;6.136;2023-09-07T05:40:42;102013.13;;;15.55;100.00
37202;BME280;37799;52.390;6.136;2023-09-07T05:43:08;102014.78;;;15.59;100.00
37202;BME280;37799;52.390;6.136;2023-09-07T05:45:36;102016.50;;;15.59;100.00
37202;BME280;37799;52.390;6.136;2023-09-07T05:48:03;102020.69;;;15.66;100.00
37202;BME280;37799;52.390;6.136;2023-09-07T05:50:28;102018.97;;;15.65;100.00
37202;BME280;37799;52.390;6.136;2023-09-07T05:52:54;102020.59;;;15.69;100.00
37202;BME280;37799;52.390;6.136;2023-09-07T05:55:19;102022.22;;;15.73;100.00
37202;BME280;37799;52.390;6.136;2023-09-07T05:57:45;102028.34;;;15.72;100.00
37202;BME280;37799;52.390;6.136;2023-09-07T06:00:11;102028.28;;;15.74;100.00
37202;BME280;37799;52.390;6.136;2023-09-07T06:02:36;102023.84;;;15.77;100.00
37202;BME280;37799;52.390;6.136;2023-09-07T06:05:02;102022.06;;;15.79;100.00
37202;BME280;37799;52.390;6.136;2023-09-07T06:07:28;102031.50;;;15.83;100.00
37202;BME280;37799;52.390;6.136;2023-09-07T06:09:53;102033.97;;;15.89;100.00
37202;BME280;37799;52.390;6.136;2023-09-07T06:12:18;102031.25;;;15.92;100.00
37202;BME280;37799;52.390;6.136;2023-09-07T06:14:45;102030.16;;;16.00;100.00
37202;BME280;37799;52.390;6.136;2023-09-07T06:17:11;102034.22;;;16.10;100.00
37202;BME280;37799;52.390;6.136;2023-09-07T06:19:36;102042.59;;;16.21;100.00
37202;BME280;37799;52.390;6.136;2023-09-07T06:22:02;102033.47;;;16.34;100.00
37202;BME280;37799;52.390;6.136;2023-09-07T06:24:27;102040.03;;;16.47;100.00
37202;BME280;37799;52.390;6.136;2023-09-07T06:26:53;102040.38;;;16.63;100.00
37202;BME280;37799;52.390;6.136;2023-09-07T06:29:18;102040.59;;;16.85;100.00
37202;BME280;37799;52.390;6.136;2023-09-07T06:31:43;102038.31;;;17.01;100.00
37202;BME280;37799;52.390;6.136;2023-09-07T06:34:09;102039.72;;;17.11;100.00
37202;BME280;37799;52.390;6.136;2023-09-07T06:36:35;102045.34;;;17.25;100.00
37202;BME280;37799;52.390;6.136;2023-09-07T06:39:00;102040.91;;;17.27;100.00
37202;BME280;37799;52.390;6.136;2023-09-07T06:41:26;102044.91;;;17.37;100.00
37202;BME280;37799;52.390;6.136;2023-09-07T06:43:51;102055.19;;;17.67;100.00
37202;BME280;37799;52.390;6.136;2023-09-07T06:46:16;102059.16;;;18.25;100.00
37202;BME280;37799;52.390;6.136;2023-09-07T06:48:42;102062.94;;;19.06;100.00
37202;BME280;37799;52.390;6.136;2023-09-07T06:51:07;102062.84;;;19.89;100.00
37202;BME280;37799;52.390;6.136;2023-09-07T06:53:34;102068.06;;;20.47;100.00
37202;BME280;37799;52.390;6.136;2023-09-07T06:56:01;102069.81;;;20.82;100.00
37202;BME280;37799;52.390;6.136;2023-09-07T06:58:26;102072.41;;;21.01;100.00
37202;BME280;37799;52.390;6.136;2023-09-07T07:00:52;102064.78;;;21.47;100.00
37202;BME280;37799;52.390;6.136;2023-09-07T07:03:18;102070.56;;;22.04;100.00
37202;BME280;37799;52.390;6.136;2023-09-07T07:05:43;102069.78;;;22.65;100.00
37202;BME280;37799;52.390;6.136;2023-09-07T07:08:09;102069.81;;;23.25;100.00
37202;BME280;37799;52.390;6.136;2023-09-07T07:10:35;102078.59;;;23.84;100.00
37202;BME280;37799;52.390;6.136;2023-09-07T07:13:00;102081.19;;;24.27;100.00
37202;BME280;37799;52.390;6.136;2023-09-07T07:15:26;102082.91;;;24.82;100.00
37202;BME280;37799;52.390;6.136;2023-09-07T07:17:51;102092.53;;;25.10;100.00
37202;BME280;37799;52.390;6.136;2023-09-07T07:20:16;102089.31;;;25.32;100.00
37202;BME280;37799;52.390;6.136;2023-09-07T07:22:42;102088.13;;;25.86;100.00
37202;BME280;37799;52.390;6.136;2023-09-07T07:25:07;102094.28;;;26.49;100.00
37202;BME280;37799;52.390;6.136;2023-09-07T07:27:33;102102.63;;;27.03;100.00
37202;BME280;37799;52.390;6.136;2023-09-07T07:29:58;102100.09;;;27.59;100.00
37202;BME280;37799;52.390;6.136;2023-09-07T07:32:24;102100.84;;;28.06;100.00
37202;BME280;37799;52.390;6.136;2023-09-07T07:34:49;102100.41;;;28.56;100.00
37202;BME280;37799;52.390;6.136;2023-09-07T07:37:15;102100.25;;;28.68;100.00
37202;BME280;37799;52.390;6.136;2023-09-07T07:39:40;102099.94;;;28.83;100.00
37202;BME280;37799;52.390;6.136;2023-09-07T07:42:05;102090.09;;;29.15;100.00
37202;BME280;37799;52.390;6.136;2023-09-07T07:44:31;102093.94;;;29.22;99.58
37202;BME280;37799;52.390;6.136;2023-09-07T07:46:57;102093.88;;;29.33;98.29
37202;BME280;37799;52.390;6.136;2023-09-07T07:49:22;102092.63;;;29.37;98.66
37202;BME280;37799;52.390;6.136;2023-09-07T07:51:47;102093.88;;;29.13;98.65
37202;BME280;37799;52.390;6.136;2023-09-07T07:54:13;102091.63;;;29.08;99.31
37202;BME280;37799;52.390;6.136;2023-09-07T07:56:39;102086.47;;;29.37;100.00
37202;BME280;37799;52.390;6.136;2023-09-07T07:59:04;102093.75;;;29.56;92.07
37202;BME280;37799;52.390;6.136;2023-09-07T08:01:30;102085.22;;;29.62;92.71
37202;BME280;37799;52.390;6.136;2023-09-07T08:03:55;102086.81;;;29.74;94.27
37202;BME280;37799;52.390;6.136;2023-09-07T08:06:21;102089.69;;;29.92;89.75
37202;BME280;37799;52.390;6.136;2023-09-07T08:08:46;102093.44;;;29.80;88.84
37202;BME280;37799;52.390;6.136;2023-09-07T08:11:11;102095.25;;;30.10;86.02
37202;BME280;37799;52.390;6.136;2023-09-07T08:13:37;102091.34;;;30.14;83.35
37202;BME280;37799;52.390;6.136;2023-09-07T08:16:03;102087.72;;;30.34;83.75
37202;BME280;37799;52.390;6.136;2023-09-07T08:18:29;102082.41;;;30.73;84.19
37202;BME280;37799;52.390;6.136;2023-09-07T08:20:58;102092.66;;;31.06;78.83
37202;BME280;37799;52.390;6.136;2023-09-07T08:23:23;102083.09;;;31.23;77.32
37202;BME280;37799;52.390;6.136;2023-09-07T08:25:51;102079.84;;;31.29;78.66
37202;BME280;37799;52.390;6.136;2023-09-07T08:28:16;102076.69;;;31.44;78.05
37202;BME280;37799;52.390;6.136;2023-09-07T08:30:43;102083.34;;;31.39;76.38
37202;BME280;37799;52.390;6.136;2023-09-07T08:33:09;102078.63;;;31.51;78.02
37202;BME280;37799;52.390;6.136;2023-09-07T08:35:34;102069.56;;;31.62;75.72
37202;BME280;37799;52.390;6.136;2023-09-07T08:38:03;102080.41;;;31.70;72.29
37202;BME280;37799;52.390;6.136;2023-09-07T08:40:33;102075.34;;;31.67;72.17
37202;BME280;37799;52.390;6.136;2023-09-07T08:43:03;102075.69;;;31.91;71.71
37202;BME280;37799;52.390;6.136;2023-09-07T08:45:29;102079.84;;;31.66;71.25
37202;BME280;37799;52.390;6.136;2023-09-07T08:47:57;102079.31;;;31.26;72.53
37202;BME280;37799;52.390;6.136;2023-09-07T08:50:23;102075.34;;;31.10;73.48
37202;BME280;37799;52.390;6.136;2023-09-07T08:52:51;102076.41;;;31.37;73.38
37202;BME280;37799;52.390;6.136;2023-09-07T08:55:17;102069.66;;;31.43;71.63
37202;BME280;37799;52.390;6.136;2023-09-07T08:57:43;102071.53;;;31.79;70.53
37202;BME280;37799;52.390;6.136;2023-09-07T09:00:08;102070.44;;;31.90;70.42
37202;BME280;37799;52.390;6.136;2023-09-07T09:02:39;102069.69;;;31.80;72.14
37202;BME280;37799;52.390;6.136;2023-09-07T09:05:05;102061.31;;;31.92;67.85
37202;BME280;37799;52.390;6.136;2023-09-07T09:07:31;102060.69;;;31.98;69.54
37202;BME280;37799;52.390;6.136;2023-09-07T09:10:06;102062.50;;;31.70;65.16
37202;BME280;37799;52.390;6.136;2023-09-07T09:12:33;102062.00;;;31.57;69.12
37202;BME280;37799;52.390;6.136;2023-09-07T09:14:59;102060.78;;;31.42;67.90
37202;BME280;37799;52.390;6.136;2023-09-07T09:17:26;102059.69;;;31.62;70.62
37202;BME280;37799;52.390;6.136;2023-09-07T09:19:51;102054.03;;;31.75;65.59
37202;BME280;37799;52.390;6.136;2023-09-07T09:22:17;102060.34;;;31.84;66.42
37202;BME280;37799;52.390;6.136;2023-09-07T09:24:42;102059.53;;;32.01;63.79
37202;BME280;37799;52.390;6.136;2023-09-07T09:27:07;102056.97;;;31.82;67.45
37202;BME280;37799;52.390;6.136;2023-09-07T09:29:33;102053.66;;;31.97;65.76
37202;BME280;37799;52.390;6.136;2023-09-07T09:32:00;102060.94;;;32.23;66.13
37202;BME280;37799;52.390;6.136;2023-09-07T09:34:32;102057.38;;;31.87;62.94
37202;BME280;37799;52.390;6.136;2023-09-07T09:36:57;102053.28;;;32.10;61.46
37202;BME280;37799;52.390;6.136;2023-09-07T09:39:23;102065.38;;;32.14;61.12
37202;BME280;37799;52.390;6.136;2023-09-07T09:41:49;102050.00;;;31.89;64.69
37202;BME280;37799;52.390;6.136;2023-09-07T09:44:16;102058.84;;;31.99;61.40
37202;BME280;37799;52.390;6.136;2023-09-07T09:46:42;102056.34;;;32.15;62.12
37202;BME280;37799;52.390;6.136;2023-09-07T09:49:08;102046.91;;;32.39;61.31
37202;BME280;37799;52.390;6.136;2023-09-07T09:51:37;102045.72;;;32.77;61.01
37202;BME280;37799;52.390;6.136;2023-09-07T09:54:04;102046.44;;;33.05;58.99
37202;BME280;37799;52.390;6.136;2023-09-07T09:56:30;102045.69;;;33.38;56.93
37202;BME280;37799;52.390;6.136;2023-09-07T09:58:55;102042.88;;;33.22;60.64
37202;BME280;37799;52.390;6.136;2023-09-07T10:01:20;102033.66;;;33.51;58.00
37202;BME280;37799;52.390;6.136;2023-09-07T10:03:48;102036.44;;;33.75;54.79
37202;BME280;37799;52.390;6.136;2023-09-07T10:06:25;102042.66;;;33.76;52.81
37202;BME280;37799;52.390;6.136;2023-09-07T10:09:02;102034.34;;;33.95;52.11
37202;BME280;37799;52.390;6.136;2023-09-07T10:11:34;102035.00;;;33.97;52.37
37202;BME280;37799;52.390;6.136;2023-09-07T10:14:03;102035.72;;;34.07;53.11
37202;BME280;37799;52.390;6.136;2023-09-07T10:16:43;102035.63;;;34.49;51.17
37202;BME280;37799;52.390;6.136;2023-09-07T10:19:22;102036.81;;;34.55;50.63
37202;BME280;37799;52.390;6.136;2023-09-07T10:21:48;102038.97;;;34.76;50.29
37202;BME280;37799;52.390;6.136;2023-09-07T10:24:30;102025.22;;;34.79;49.29
37202;BME280;37799;52.390;6.136;2023-09-07T10:29:25;102023.84;;;34.99;47.04
37202;BME280;37799;52.390;6.136;2023-09-07T10:31:51;102031.09;;;34.66;49.54
37202;BME280;37799;52.390;6.136;2023-09-07T10:34:16;102015.94;;;34.73;48.27
37202;BME280;37799;52.390;6.136;2023-09-07T10:36:42;102026.03;;;35.04;47.55
37202;BME280;37799;52.390;6.136;2023-09-07T10:39:08;102021.44;;;35.21;46.87
37202;BME280;37799;52.390;6.136;2023-09-07T10:41:43;102014.63;;;34.94;45.21
37202;BME280;37799;52.390;6.136;2023-09-07T10:44:09;102017.31;;;34.94;45.44
37202;BME280;37799;52.390;6.136;2023-09-07T10:46:39;102015.81;;;35.46;47.99
37202;BME280;37799;52.390;6.136;2023-09-07T10:49:07;102013.06;;;35.63;45.65
37202;BME280;37799;52.390;6.136;2023-09-07T10:51:41;102018.16;;;35.81;45.66
37202;BME280;37799;52.390;6.136;2023-09-07T10:54:17;102006.63;;;35.72;43.51
37202;BME280;37799;52.390;6.136;2023-09-07T10:56:44;102003.81;;;35.96;45.50
37202;BME280;37799;52.390;6.136;2023-09-07T10:59:11;102002.84;;;36.12;43.29
37202;BME280;37799;52.390;6.136;2023-09-07T11:01:36;101999.59;;;35.94;44.49
37202;BME280;37799;52.390;6.136;2023-09-07T11:04:02;101996.63;;;36.12;43.99
37202;BME280;37799;52.390;6.136;2023-09-07T11:06:29;101999.19;;;36.51;42.66
37202;BME280;37799;52.390;6.136;2023-09-07T11:08:54;102000.22;;;36.50;40.54
37202;BME280;37799;52.390;6.136;2023-09-07T11:11:19;101988.34;;;36.13;40.27
37202;BME280;37799;52.390;6.136;2023-09-07T11:13:47;101988.56;;;36.26;42.15
37202;BME280;37799;52.390;6.136;2023-09-07T11:16:13;101989.31;;;36.58;43.00
37202;BME280;37799;52.390;6.136;2023-09-07T11:18:39;101992.28;;;36.25;40.54
37202;BME280;37799;52.390;6.136;2023-09-07T11:21:05;101982.78;;;35.84;42.04
37202;BME280;37799;52.390;6.136;2023-09-07T11:23:33;101981.44;;;35.80;41.44
37202;BME280;37799;52.390;6.136;2023-09-07T11:26:07;101982.72;;;36.00;42.51
37202;BME280;37799;52.390;6.136;2023-09-07T11:28:33;101976.00;;;35.96;40.42
37202;BME280;37799;52.390;6.136;2023-09-07T11:30:59;101972.41;;;35.72;43.82
37202;BME280;37799;52.390;6.136;2023-09-07T11:33:25;101975.22;;;35.87;42.77
37202;BME280;37799;52.390;6.136;2023-09-07T11:35:52;101972.88;;;36.07;43.05
37202;BME280;37799;52.390;6.136;2023-09-07T11:38:19;101971.44;;;36.19;41.59
37202;BME280;37799;52.390;6.136;2023-09-07T11:40:44;101967.63;;;36.37;40.34
37202;BME280;37799;52.390;6.136;2023-09-07T11:43:13;101960.31;;;35.37;39.11
37202;BME280;37799;52.390;6.136;2023-09-07T11:45:40;101957.19;;;35.17;41.49
37202;BME280;37799;52.390;6.136;2023-09-07T11:48:06;101959.59;;;35.04;41.37
37202;BME280;37799;52.390;6.136;2023-09-07T11:50:34;101953.22;;;34.89;42.22
37202;BME280;37799;52.390;6.136;2023-09-07T11:53:00;101950.81;;;35.02;43.30
37202;BME280;37799;52.390;6.136;2023-09-07T11:55:25;101943.75;;;35.09;43.86
37202;BME280;37799;52.390;6.136;2023-09-07T11:57:51;101947.00;;;35.28;45.04
37202;BME280;37799;52.390;6.136;2023-09-07T12:00:17;101937.31;;;35.18;44.12
37202;BME280;37799;52.390;6.136;2023-09-07T12:02:42;101936.13;;;35.13;43.30
37202;BME280;37799;52.390;6.136;2023-09-07T12:05:08;101929.44;;;35.09;42.06
37202;BME280;37799;52.390;6.136;2023-09-07T12:07:35;101933.72;;;34.63;40.10
37202;BME280;37799;52.390;6.136;2023-09-07T12:10:00;101933.25;;;34.18;42.03
37202;BME280;37799;52.390;6.136;2023-09-07T12:12:26;101932.09;;;34.13;42.51
37202;BME280;37799;52.390;6.136;2023-09-07T12:14:51;101926.53;;;34.06;42.12
37202;BME280;37799;52.390;6.136;2023-09-07T12:17:16;101929.56;;;34.03;45.12
37202;BME280;37799;52.390;6.136;2023-09-07T12:19:44;101926.00;;;33.94;44.18
37202;BME280;37799;52.390;6.136;2023-09-07T12:22:11;101931.06;;;33.89;43.55
37202;BME280;37799;52.390;6.136;2023-09-07T12:24:36;101922.44;;;33.78;44.11
37202;BME280;37799;52.390;6.136;2023-09-07T12:27:02;101922.06;;;33.48;44.92
37202;BME280;37799;52.390;6.136;2023-09-07T12:29:27;101917.72;;;33.21;43.31
37202;BME280;37799;52.390;6.136;2023-09-07T12:31:52;101921.66;;;33.01;43.83
37202;BME280;37799;52.390;6.136;2023-09-07T12:34:18;101907.50;;;32.82;44.38
37202;BME280;37799;52.390;6.136;2023-09-07T12:36:43;101911.44;;;32.52;46.84
37202;BME280;37799;52.390;6.136;2023-09-07T12:39:08;101914.19;;;32.35;47.19
37202;BME280;37799;52.390;6.136;2023-09-07T12:41:34;101906.56;;;32.48;46.71